Time,TemperatureF,DewpointF,PressureIn,WindDirection,WindDirectionDegrees,WindSpeedMPH,WindSpeedGustMPH,Humidity,HourlyPrecipIn,Conditions,Clouds,dailyrainin,SoftwareType,DateUTC
2013-01-10 00:08:00,51.9,33.0,30.37,North,360,1.0,4.0,48,0.00,,,0.00,weatherlink.com 1.10,2013-01-10 05:08:00,
2013-01-10 00:23:00,51.6,33.0,30.38,SSW,204,2.0,6.0,49,0.00,,,0.00,weatherlink.com 1.10,2013-01-10 05:23:00,
2013-01-10 00:46:00,50.8,33.0,30.38,West,261,0.0,7.0,51,0.00,,,0.00,weatherlink.com 1.10,2013-01-10 05:46:00,
2013-01-10 00:53:00,50.8,33.0,30.38,WNW,296,0.0,4.0,51,0.00,,,0.00,weatherlink.com 1.10,2013-01-10 05:53:00,
2013-01-10 01:08:00,50.5,33.0,30.39,WSW,239,1.0,5.0,52,0.00,,,0.00,weatherlink.com 1.10,2013-01-10 06:08:00,
2013-01-10 01:23:00,49.9,33.0,30.39,West,267,8.0,8.0,53,0.00,,,0.00,weatherlink.com 1.10,2013-01-10 06:23:00,
2013-01-10 01:38:00,49.9,33.0,30.39,West,261,0.0,7.0,52,0.00,,,0.00,weatherlink.com 1.10,2013-01-10 06:38:00,
2013-01-10 01:53:00,49.6,32.0,30.40,WSW,252,0.0,2.0,52,0.00,,,0.00,weatherlink.com 1.10,2013-01-10 06:53:00,
2013-01-10 02:08:00,49.4,33.0,30.41,North,355,0.0,3.0,53,0.00,,,0.00,weatherlink.com 1.10,2013-01-10 07:08:00,
2013-01-10 02:23:00,48.7,33.0,30.41,WNW,296,0.0,3.0,55,0.00,,,0.00,weatherlink.com 1.10,2013-01-10 07:23:00,
2013-01-10 02:38:00,48.7,33.0,30.42,WNW,301,0.0,3.0,55,0.00,,,0.00,weatherlink.com 1.10,2013-01-10 07:38:00,
2013-01-10 02:53:00,48.7,33.0,30.42,WNW,287,2.0,3.0,54,0.00,,,0.00,weatherlink.com 1.10,2013-01-10 07:53:00,
2013-01-10 03:08:00,48.7,33.0,30.43,WNW,300,0.0,3.0,55,0.00,,,0.00,weatherlink.com 1.10,2013-01-10 08:08:00,
2013-01-10 03:23:00,47.8,33.0,30.43,WNW,300,0.0,1.0,57,0.00,,,0.00,weatherlink.com 1.10,2013-01-10 08:23:00,
2013-01-10 03:38:00,47.0,32.0,30.43,WNW,300,0.0,1.0,57,0.00,,,0.00,weatherlink.com 1.10,2013-01-10 08:38:00,
2013-01-10 03:53:00,46.7,32.0,30.44,WNW,303,0.0,3.0,57,0.00,,,0.00,weatherlink.com 1.10,2013-01-10 08:53:00,
2013-01-10 04:08:00,47.0,31.0,30.44,WNW,295,0.0,3.0,55,0.00,,,0.00,weatherlink.com 1.10,2013-01-10 09:08:00,
2013-01-10 04:24:00,47.1,31.0,30.44,WNW,290,1.0,4.0,54,0.00,,,0.00,weatherlink.com 1.10,2013-01-10 09:24:00,
2013-01-10 04:39:00,46.7,30.0,30.44,WNW,297,2.0,5.0,53,0.00,,,0.00,weatherlink.com 1.10,2013-01-10 09:39:00,
2013-01-10 04:54:00,46.5,30.0,30.44,WNW,302,1.0,6.0,53,0.00,,,0.00,weatherlink.com 1.10,2013-01-10 09:54:00,
2013-01-10 05:09:00,46.1,30.0,30.45,WNW,300,0.0,2.0,54,0.00,,,0.00,weatherlink.com 1.10,2013-01-10 10:09:00,
2013-01-10 05:24:00,45.3,30.0,30.45,WNW,300,0.0,2.0,55,0.00,,,0.00,weatherlink.com 1.10,2013-01-10 10:24:00,
2013-01-10 05:39:00,44.5,29.0,30.45,WNW,300,0.0,0.0,56,0.00,,,0.00,weatherlink.com 1.10,2013-01-10 10:39:00,
2013-01-10 05:54:00,44.2,30.0,30.46,WNW,300,0.0,2.0,57,0.00,,,0.00,weatherlink.com 1.10,2013-01-10 10:54:00,
2013-01-10 06:09:00,43.6,30.0,30.47,WNW,300,0.0,2.0,59,0.00,,,0.00,weatherlink.com 1.10,2013-01-10 11:09:00,
2013-01-10 06:24:00,43.1,30.0,30.47,WNW,300,0.0,1.0,60,0.00,,,0.00,weatherlink.com 1.10,2013-01-10 11:24:00,
2013-01-10 06:39:00,43.1,30.0,30.48,West,268,0.0,2.0,60,0.00,,,0.00,weatherlink.com 1.10,2013-01-10 11:39:00,
2013-01-10 06:54:00,42.9,30.0,30.49,West,269,0.0,2.0,60,0.00,,,0.00,weatherlink.com 1.10,2013-01-10 11:54:00,
2013-01-10 07:09:00,42.8,30.0,30.50,WNW,286,0.0,3.0,61,0.00,,,0.00,weatherlink.com 1.10,2013-01-10 12:09:00,
2013-01-10 07:24:00,42.4,30.0,30.50,WNW,286,0.0,0.0,61,0.00,,,0.00,weatherlink.com 1.10,2013-01-10 12:24:00,
2013-01-10 07:39:00,42.5,30.0,30.52,NW,310,1.0,4.0,62,0.00,,,0.00,weatherlink.com 1.10,2013-01-10 12:39:00,
2013-01-10 07:54:00,42.9,30.0,30.53,NW,306,0.0,4.0,61,0.00,,,0.00,weatherlink.com 1.10,2013-01-10 12:54:00,
2013-01-10 08:09:00,43.2,30.0,30.54,WNW,302,2.0,5.0,60,0.00,,,0.00,weatherlink.com 1.10,2013-01-10 13:09:00,
2013-01-10 08:24:00,43.6,30.0,30.55,WNW,295,0.0,7.0,58,0.00,,,0.00,weatherlink.com 1.10,2013-01-10 13:24:00,
2013-01-10 08:39:00,44.2,30.0,30.55,WNW,303,3.0,5.0,57,0.00,,,0.00,weatherlink.com 1.10,2013-01-10 13:39:00,
2013-01-10 08:54:00,44.5,30.0,30.56,NW,314,0.0,5.0,57,0.00,,,0.00,weatherlink.com 1.10,2013-01-10 13:54:00,
2013-01-10 09:09:00,45.0,30.0,30.57,WNW,286,2.0,4.0,56,0.00,,,0.00,weatherlink.com 1.10,2013-01-10 14:09:00,
2013-01-10 09:24:00,45.4,30.0,30.57,WNW,283,0.0,6.0,55,0.00,,,0.00,weatherlink.com 1.10,2013-01-10 14:24:00,
2013-01-10 09:39:00,45.8,30.0,30.58,NNW,327,2.0,4.0,55,0.00,,,0.00,weatherlink.com 1.10,2013-01-10 14:39:00,
2013-01-10 09:54:00,46.2,30.0,30.59,NW,323,4.0,6.0,54,0.00,,,0.00,weatherlink.com 1.10,2013-01-10 14:54:00,
2013-01-10 10:09:00,46.5,30.0,30.59,WNW,302,2.0,5.0,53,0.00,,,0.00,weatherlink.com 1.10,2013-01-10 15:09:00,
2013-01-10 10:24:00,46.9,30.0,30.59,West,270,0.0,6.0,53,0.00,,,0.00,weatherlink.com 1.10,2013-01-10 15:24:00,
2013-01-10 10:39:00,47.3,30.0,30.59,WNW,294,0.0,7.0,52,0.00,,,0.00,weatherlink.com 1.10,2013-01-10 15:39:00,
2013-01-10 10:54:00,47.3,30.0,30.59,WNW,294,2.0,6.0,52,0.00,,,0.00,weatherlink.com 1.10,2013-01-10 15:54:00,
2013-01-10 11:09:00,47.4,30.0,30.58,WNW,288,5.0,6.0,51,0.00,,,0.00,weatherlink.com 1.10,2013-01-10 16:09:00,
2013-01-10 11:24:00,47.6,31.0,30.57,WNW,297,1.0,6.0,53,0.00,,,0.00,weatherlink.com 1.10,2013-01-10 16:24:00,
2013-01-10 11:39:00,47.8,30.0,30.57,WNW,282,1.0,6.0,51,0.00,,,0.00,weatherlink.com 1.10,2013-01-10 16:39:00,
2013-01-10 11:54:00,48.0,30.0,30.56,West,275,1.0,5.0,51,0.00,,,0.00,weatherlink.com 1.10,2013-01-10 16:54:00,
2013-01-10 12:09:00,48.3,31.0,30.55,NW,324,1.0,5.0,51,0.00,,,0.00,weatherlink.com 1.10,2013-01-10 17:09:00,
2013-01-10 12:24:00,48.8,31.0,30.55,NNW,344,2.0,3.0,50,0.00,,,0.00,weatherlink.com 1.10,2013-01-10 17:24:00,
2013-01-10 12:39:00,49.1,30.0,30.54,NW,323,1.0,4.0,49,0.00,,,0.00,weatherlink.com 1.10,2013-01-10 17:39:00,
2013-01-10 12:54:00,49.6,31.0,30.53,NNE,13,0.0,3.0,49,0.00,,,0.00,weatherlink.com 1.10,2013-01-10 17:54:00,
2013-01-10 13:09:00,49.6,32.0,30.52,NE,38,0.0,3.0,51,0.00,,,0.00,weatherlink.com 1.10,2013-01-10 18:09:00,
2013-01-10 13:24:00,49.9,32.0,30.52,West,259,0.0,3.0,50,0.00,,,0.00,weatherlink.com 1.10,2013-01-10 18:24:00,
2013-01-10 13:39:00,50.4,32.0,30.52,NNW,338,2.0,2.0,49,0.00,,,0.00,weatherlink.com 1.10,2013-01-10 18:39:00,
2013-01-10 13:54:00,49.7,31.0,30.52,North,360,1.0,2.0,49,0.00,,,0.00,weatherlink.com 1.10,2013-01-10 18:54:00,
2013-01-10 14:09:00,49.6,31.0,30.52,NE,53,1.0,2.0,50,0.00,,,0.00,weatherlink.com 1.10,2013-01-10 19:09:00,
2013-01-10 14:24:00,49.4,31.0,30.53,NE,38,0.0,2.0,49,0.00,,,0.00,weatherlink.com 1.10,2013-01-10 19:24:00,
2013-01-10 14:39:00,48.9,31.0,30.52,NNE,32,0.0,3.0,50,0.00,,,0.00,weatherlink.com 1.10,2013-01-10 19:39:00,
2013-01-10 14:54:00,47.7,31.0,30.52,NNE,22,1.0,3.0,53,0.00,,,0.00,weatherlink.com 1.10,2013-01-10 19:54:00,
2013-01-10 15:10:00,47.8,31.0,30.52,NE,50,0.0,3.0,52,0.00,,,0.00,weatherlink.com 1.10,2013-01-10 20:10:00,
2013-01-10 15:25:00,48.8,32.0,30.52,NE,50,1.0,2.0,52,0.00,,,0.00,weatherlink.com 1.10,2013-01-10 20:25:00,
2013-01-10 15:55:00,47.2,31.0,30.52,North,5,0.0,2.0,53,0.00,,,0.00,weatherlink.com 1.10,2013-01-10 20:55:00,
2013-01-10 16:10:00,47.0,32.0,30.52,North,5,0.0,0.0,56,0.00,,,0.00,weatherlink.com 1.10,2013-01-10 21:10:00,
2013-01-10 16:25:00,46.5,31.0,30.52,North,5,0.0,0.0,56,0.00,,,0.00,weatherlink.com 1.10,2013-01-10 21:25:00,
2013-01-10 16:40:00,45.5,31.0,30.52,North,5,0.0,0.0,58,0.00,,,0.00,weatherlink.com 1.10,2013-01-10 21:40:00,
2013-01-10 16:55:00,44.7,31.0,30.51,North,5,0.0,0.0,59,0.00,,,0.00,weatherlink.com 1.10,2013-01-10 21:55:00,
2013-01-10 17:10:00,44.0,31.0,30.51,North,5,0.0,0.0,61,0.00,,,0.00,weatherlink.com 1.10,2013-01-10 22:10:00,
2013-01-10 17:25:00,43.3,31.0,30.51,North,5,0.0,0.0,63,0.00,,,0.00,weatherlink.com 1.10,2013-01-10 22:25:00,
2013-01-10 17:55:00,42.2,31.0,30.50,North,5,0.0,0.0,66,0.00,,,0.00,weatherlink.com 1.10,2013-01-10 22:55:00,
2013-01-10 18:10:00,42.1,31.0,30.50,North,5,0.0,0.0,66,0.00,,,0.00,weatherlink.com 1.10,2013-01-10 23:10:00,
2013-01-10 18:25:00,42.0,32.0,30.51,North,5,0.0,0.0,67,0.00,,,0.00,weatherlink.com 1.10,2013-01-10 23:25:00,
2013-01-10 18:40:00,42.1,31.0,30.51,North,5,0.0,0.0,65,0.00,,,0.00,weatherlink.com 1.10,2013-01-10 23:40:00,
2013-01-10 18:55:00,42.0,32.0,30.52,North,5,0.0,0.0,68,0.00,,,0.00,weatherlink.com 1.10,2013-01-10 23:55:00,
2013-01-10 19:10:00,41.9,32.0,30.52,North,5,0.0,0.0,68,0.00,,,0.00,weatherlink.com 1.10,2013-01-11 00:10:00,
2013-01-10 19:25:00,41.7,32.0,30.52,North,5,0.0,0.0,69,0.00,,,0.00,weatherlink.com 1.10,2013-01-11 00:25:00,
2013-01-10 19:40:00,41.6,32.0,30.52,North,5,0.0,0.0,70,0.00,,,0.00,weatherlink.com 1.10,2013-01-11 00:40:00,
2013-01-10 19:55:00,41.4,31.0,30.52,North,5,0.0,0.0,67,0.00,,,0.00,weatherlink.com 1.10,2013-01-11 00:55:00,
2013-01-10 20:10:00,41.2,32.0,30.52,North,5,0.0,0.0,71,0.00,,,0.00,weatherlink.com 1.10,2013-01-11 01:10:00,
2013-01-10 20:25:00,40.9,33.0,30.52,North,5,0.0,0.0,73,0.00,,,0.00,weatherlink.com 1.10,2013-01-11 01:25:00,
2013-01-10 20:40:00,40.7,33.0,30.52,North,5,0.0,0.0,73,0.00,,,0.00,weatherlink.com 1.10,2013-01-11 01:40:00,
2013-01-10 20:55:00,40.2,32.0,30.52,North,5,0.0,0.0,72,0.00,,,0.00,weatherlink.com 1.10,2013-01-11 01:55:00,
2013-01-10 21:10:00,40.2,34.0,30.53,North,5,0.0,0.0,77,0.00,,,0.00,weatherlink.com 1.10,2013-01-11 02:10:00,
2013-01-10 21:25:00,39.8,31.0,30.53,North,5,0.0,0.0,72,0.00,,,0.00,weatherlink.com 1.10,2013-01-11 02:25:00,
2013-01-10 21:40:00,39.5,32.0,30.53,North,5,0.0,0.0,75,0.00,,,0.00,weatherlink.com 1.10,2013-01-11 02:40:00,
2013-01-10 21:55:00,38.4,31.0,30.53,North,5,0.0,0.0,76,0.00,,,0.00,weatherlink.com 1.10,2013-01-11 02:55:00,
2013-01-10 22:10:00,38.2,31.0,30.53,North,5,0.0,0.0,75,0.00,,,0.00,weatherlink.com 1.10,2013-01-11 03:10:00,
2013-01-10 22:25:00,38.0,31.0,30.52,North,5,0.0,0.0,76,0.00,,,0.00,weatherlink.com 1.10,2013-01-11 03:25:00,
2013-01-10 22:40:00,37.7,31.0,30.52,North,5,0.0,0.0,77,0.00,,,0.00,weatherlink.com 1.10,2013-01-11 03:40:00,
2013-01-10 22:55:00,37.2,31.0,30.51,North,5,0.0,0.0,77,0.00,,,0.00,weatherlink.com 1.10,2013-01-11 03:55:00,
2013-01-10 23:10:00,37.8,31.0,30.51,North,5,0.0,0.0,76,0.00,,,0.00,weatherlink.com 1.10,2013-01-11 04:10:00,
2013-01-10 23:25:00,39.1,31.0,30.52,North,5,0.0,0.0,73,0.00,,,0.00,weatherlink.com 1.10,2013-01-11 04:25:00,
2013-01-10 23:40:00,39.4,31.0,30.51,North,5,0.0,0.0,72,0.00,,,0.00,weatherlink.com 1.10,2013-01-11 04:40:00,
2013-01-10 23:55:00,39.8,31.0,30.51,North,5,0.0,0.0,71,0.00,,,0.00,weatherlink.com 1.10,2013-01-11 04:55:00,